Time;durP1;ratioP1;P1;durP2;ratioP2;P2;SDS_P1;SDS_P2;PMS_P1;PMS_P2;Temp;Humidity;BMP_temperature;BMP_pressure;BME280_temperature;BME280_humidity;BME280_pressure;Samples;Min_cycle;Max_cycle;Signal;HPM_P1;HPM_P2
2022/07/26 03:44:31;;;;;;;;;;;;;;;23.91;100.00;97887.72;5321373;24;19973;-81
2022/07/26 03:46:58;;;;;;;;;;;;;;;23.95;100.00;97887.50;4847587;29;19958;-80
2022/07/26 03:49:26;;;;;;;;;;;;;;;23.94;100.00;97892.44;4846642;29;19955;-81
2022/07/26 03:51:54;;;;;;;;;;;;;;;23.98;100.00;97898.75;4846375;29;20367;-80
2022/07/26 03:54:21;;;;;;;;;;;;;;;23.91;100.00;97893.44;4846275;29;19947;-79
2022/07/26 03:56:49;;;;;;;;;;;;;;;23.90;100.00;97891.88;4845271;29;20277;-79
2022/07/26 03:59:19;;;;;;;;;;;;;;;23.89;100.00;97900.94;4846702;29;19951;-80
2022/07/26 04:01:47;;;;;;;;;;;;;;;23.89;100.00;97898.84;4830580;29;19954;-79
2022/07/26 04:04:16;;;;;;;;;;;;;;;23.81;100.00;97886.28;4846504;29;19950;-79
2022/07/26 04:06:44;;;;;;;;;;;;;;;23.69;100.00;97887.41;4843695;29;19962;-79
2022/07/26 04:09:12;;;;;;;;;;;;;;;23.69;100.00;97884.56;4846192;29;20214;-79
2022/07/26 04:11:40;;;;;;;;;;;;;;;23.68;100.00;97885.03;4845128;29;19951;-79
2022/07/26 04:14:07;;;;;;;;;;;;;;;23.67;100.00;97889.94;4845821;29;19952;-79
2022/07/26 04:16:35;;;;;;;;;;;;;;;23.62;100.00;97887.03;4845255;29;19985;-79
2022/07/26 04:19:05;;;;;;;;;;;;;;;23.58;100.00;97878.66;4845831;29;19956;-79
2022/07/26 04:21:32;;;;;;;;;;;;;;;23.78;100.00;97886.47;4845101;29;19949;-79
2022/07/26 04:24:00;;;;;;;;;;;;;;;23.84;100.00;97882.41;4839889;29;19951;-78
2022/07/26 04:26:28;;;;;;;;;;;;;;;23.90;100.00;97894.72;4846845;29;19952;-79
2022/07/26 04:28:56;;;;;;;;;;;;;;;24.02;100.00;97890.72;4845383;29;19954;-79
2022/07/26 04:31:23;;;;;;;;;;;;;;;24.12;100.00;97889.34;4840201;29;19955;-79
2022/07/26 04:33:51;;;;;;;;;;;;;;;24.18;100.00;97893.06;4843359;29;20337;-79
2022/07/26 04:36:18;;;;;;;;;;;;;;;24.36;100.00;97894.84;4827615;29;19981;-78
2022/07/26 04:38:45;;;;;;;;;;;;;;;24.35;100.00;97889.63;4843498;29;19972;-79
2022/07/26 04:41:12;;;;;;;;;;;;;;;24.40;100.00;97894.66;4845384;29;19953;-79
2022/07/26 04:43:40;;;;;;;;;;;;;;;24.46;100.00;97895.47;4845436;29;19968;-79
2022/07/26 04:46:07;;;;;;;;;;;;;;;24.76;100.00;97894.03;4844835;29;20242;-79
2022/07/26 04:48:35;;;;;;;;;;;;;;;24.87;100.00;97896.25;4843427;29;20261;-79
2022/07/26 04:51:02;;;;;;;;;;;;;;;25.22;100.00;97886.19;4846060;29;20408;-79
2022/07/26 04:53:30;;;;;;;;;;;;;;;25.33;100.00;97892.00;4842002;29;20360;-78
2022/07/26 04:55:57;;;;;;;;;;;;;;;25.72;100.00;97888.72;4845170;29;19956;-79
2022/07/26 04:58:25;;;;;;;;;;;;;;;25.60;100.00;97890.72;4843371;29;19974;-78
2022/07/26 05:00:52;;;;;;;;;;;;;;;25.75;100.00;97885.59;4842812;29;20241;-79
2022/07/26 05:03:35;;;;;;;;;;;;;;;26.11;100.00;97895.50;4839686;29;19958;-79
2022/07/26 05:06:02;;;;;;;;;;;;;;;26.34;100.00;97891.44;4840073;29;20831;-79
2022/07/26 05:08:29;;;;;;;;;;;;;;;26.83;100.00;97889.31;4844729;29;19946;-79
2022/07/26 05:10:56;;;;;;;;;;;;;;;27.32;100.00;97900.88;4843871;29;19957;-80
2022/07/26 05:13:23;;;;;;;;;;;;;;;27.63;100.00;97893.38;4844893;29;19965;-79
2022/07/26 05:15:51;;;;;;;;;;;;;;;27.94;100.00;97895.94;4843180;29;19950;-79
2022/07/26 05:18:18;;;;;;;;;;;;;;;28.21;100.00;97892.25;4843135;29;19974;-79
2022/07/26 05:20:45;;;;;;;;;;;;;;;28.70;100.00;97904.91;4842990;29;19956;-79
2022/07/26 05:23:13;;;;;;;;;;;;;;;29.04;100.00;97902.63;4822668;29;20269;-79
2022/07/26 05:25:40;;;;;;;;;;;;;;;29.40;100.00;97903.44;4823337;29;19958;-80
2022/07/26 05:28:07;;;;;;;;;;;;;;;29.25;100.00;97907.50;4842693;29;19954;-80
2022/07/26 05:30:35;;;;;;;;;;;;;;;29.70;100.00;97907.16;4841129;29;19955;-79
2022/07/26 05:33:02;;;;;;;;;;;;;;;30.02;100.00;97905.31;4835849;29;20217;-81
2022/07/26 05:35:30;;;;;;;;;;;;;;;30.32;100.00;97900.25;4839776;29;19949;-79
2022/07/26 05:37:58;;;;;;;;;;;;;;;30.44;100.00;97900.94;4836737;29;20448;-79
2022/07/26 05:40:25;;;;;;;;;;;;;;;30.37;100.00;97892.91;4844512;29;19949;-79
2022/07/26 05:42:53;;;;;;;;;;;;;;;29.94;100.00;97904.34;4843849;29;19970;-79
2022/07/26 05:45:20;;;;;;;;;;;;;;;29.74;100.00;97891.13;4846567;29;19971;-79
2022/07/26 05:47:50;;;;;;;;;;;;;;;29.58;100.00;97888.38;4841587;29;19974;-79
2022/07/26 05:50:18;;;;;;;;;;;;;;;29.43;100.00;97894.53;4843828;29;19962;-79
2022/07/26 05:52:45;;;;;;;;;;;;;;;29.46;100.00;97909.97;4839104;29;19953;-79
2022/07/26 05:55:12;;;;;;;;;;;;;;;29.52;100.00;97899.16;4843559;29;19951;-79
2022/07/26 05:57:46;;;;;;;;;;;;;;;29.36;100.00;97909.50;4843272;29;19966;-79
2022/07/26 06:00:13;;;;;;;;;;;;;;;29.51;100.00;97906.25;4836938;29;19955;-79
2022/07/26 06:02:41;;;;;;;;;;;;;;;29.48;100.00;97901.56;4844366;29;19956;-79
2022/07/26 06:05:08;;;;;;;;;;;;;;;29.62;100.00;97901.19;4853575;29;19956;-79
2022/07/26 06:07:35;;;;;;;;;;;;;;;29.75;100.00;97889.81;4843132;29;19950;-79
2022/07/26 06:10:03;;;;;;;;;;;;;;;29.57;100.00;97889.69;4843991;29;19959;-79
2022/07/26 06:12:30;;;;;;;;;;;;;;;29.80;100.00;97888.22;4843520;29;19949;-79
2022/07/26 06:14:57;;;;;;;;;;;;;;;29.94;100.00;97892.78;4844392;29;19960;-79
2022/07/26 06:17:28;;;;;;;;;;;;;;;29.84;100.00;97889.50;4847293;29;19964;-79
2022/07/26 06:19:57;;;;;;;;;;;;;;;30.13;100.00;97892.84;4841305;29;19949;-79
2022/07/26 06:22:24;;;;;;;;;;;;;;;30.38;100.00;97900.22;4843495;29;19964;-79
2022/07/26 06:24:51;;;;;;;;;;;;;;;30.40;100.00;97892.59;4847101;29;19951;-79
2022/07/26 06:27:19;;;;;;;;;;;;;;;30.60;100.00;97896.28;4850562;29;19956;-79
2022/07/26 06:29:47;;;;;;;;;;;;;;;30.28;100.00;97896.91;4845980;29;20343;-87
2022/07/26 06:32:15;;;;;;;;;;;;;;;30.53;100.00;97897.69;4845330;29;19952;-79
2022/07/26 06:34:42;;;;;;;;;;;;;;;30.58;100.00;97890.28;4847607;29;19950;-80
2022/07/26 06:37:09;;;;;;;;;;;;;;;30.54;100.00;97891.38;4846918;29;19961;-80
2022/07/26 06:39:36;;;;;;;;;;;;;;;30.38;100.00;97885.78;4845988;29;19963;-80
2022/07/26 06:42:04;;;;;;;;;;;;;;;30.31;100.00;97881.41;4842873;29;20603;-80
2022/07/26 06:44:31;;;;;;;;;;;;;;;30.41;100.00;97891.28;4835856;29;20231;-80
2022/07/26 06:46:58;;;;;;;;;;;;;;;30.39;100.00;97882.38;4846860;29;19953;-80
2022/07/26 06:49:25;;;;;;;;;;;;;;;30.55;100.00;97890.03;4847348;29;19944;-80
2022/07/26 06:51:56;;;;;;;;;;;;;;;30.37;100.00;97885.00;4846856;29;19962;-80
2022/07/26 06:54:23;;;;;;;;;;;;;;;30.35;100.00;97893.44;4846672;29;19954;-80
2022/07/26 06:56:51;;;;;;;;;;;;;;;30.31;100.00;97892.94;4836604;29;19955;-80
2022/07/26 06:59:19;;;;;;;;;;;;;;;30.65;100.00;97901.22;4844687;29;20372;-80
2022/07/26 07:01:46;;;;;;;;;;;;;;;30.47;100.00;97894.88;4840298;29;20435;-80
2022/07/26 07:04:13;;;;;;;;;;;;;;;30.51;100.00;97900.34;4846441;29;20379;-80
2022/07/26 07:06:41;;;;;;;;;;;;;;;30.31;100.00;97897.91;4846326;29;19947;-80
2022/07/26 07:09:08;;;;;;;;;;;;;;;30.20;100.00;97900.94;4844810;29;19953;-80
2022/07/26 07:11:35;;;;;;;;;;;;;;;30.18;100.00;97894.91;4838427;29;19984;-80
2022/07/26 07:14:02;;;;;;;;;;;;;;;29.95;100.00;97910.88;4846663;29;19951;-80
2022/07/26 07:16:30;;;;;;;;;;;;;;;29.86;100.00;97903.34;4844460;29;19948;-80
2022/07/26 07:18:57;;;;;;;;;;;;;;;29.81;100.00;97896.31;4846441;29;19976;-80
2022/07/26 07:21:24;;;;;;;;;;;;;;;29.95;100.00;97903.03;4845716;29;19951;-80
2022/07/26 07:23:51;;;;;;;;;;;;;;;30.04;100.00;97896.91;4846403;29;19954;-73
2022/07/26 07:26:19;;;;;;;;;;;;;;;29.85;100.00;97896.03;4829656;29;20397;-74
2022/07/26 07:28:46;;;;;;;;;;;;;;;29.92;100.00;97893.34;4843818;29;19949;-73
2022/07/26 07:31:13;;;;;;;;;;;;;;;29.95;100.00;97890.69;4840698;29;19959;-73
2022/07/26 07:33:41;;;;;;;;;;;;;;;30.09;100.00;97893.16;4843130;29;19957;-73
2022/07/26 07:36:08;;;;;;;;;;;;;;;30.25;100.00;97886.44;4842098;29;20251;-73
2022/07/26 07:38:35;;;;;;;;;;;;;;;29.88;100.00;97889.22;4845338;29;20245;-73
2022/07/26 07:41:02;;;;;;;;;;;;;;;29.84;100.00;97888.69;4846218;29;19957;-73
2022/07/26 07:43:29;;;;;;;;;;;;;;;29.99;100.00;97894.06;4845162;29;19948;-73
2022/07/26 07:45:57;;;;;;;;;;;;;;;29.85;100.00;97893.94;4838839;29;19950;-73
2022/07/26 07:48:24;;;;;;;;;;;;;;;29.97;100.00;97888.06;4843865;29;19952;-73
2022/07/26 07:50:51;;;;;;;;;;;;;;;29.89;100.00;97891.53;4845693;29;19951;-73
2022/07/26 07:53:18;;;;;;;;;;;;;;;29.71;100.00;97889.31;4845739;29;19952;-73
2022/07/26 07:55:46;;;;;;;;;;;;;;;29.93;100.00;97892.00;4830179;29;20285;-73
2022/07/26 07:58:16;;;;;;;;;;;;;;;30.11;100.00;97883.97;4843721;29;20288;-73
2022/07/26 08:00:43;;;;;;;;;;;;;;;30.13;100.00;97878.44;4844729;29;19955;-73
2022/07/26 08:03:11;;;;;;;;;;;;;;;30.15;100.00;97879.47;4846518;29;20020;-73
2022/07/26 08:05:38;;;;;;;;;;;;;;;30.29;100.00;97883.25;4843013;29;20252;-73
2022/07/26 08:08:05;;;;;;;;;;;;;;;30.08;100.00;97887.97;4845239;29;19954;-73
2022/07/26 08:10:32;;;;;;;;;;;;;;;30.21;100.00;97885.97;4846507;29;19953;-73
2022/07/26 08:13:00;;;;;;;;;;;;;;;30.42;100.00;97883.41;4830099;29;19951;-73
2022/07/26 08:15:27;;;;;;;;;;;;;;;30.26;100.00;97881.44;4845340;29;19947;-73
2022/07/26 08:17:55;;;;;;;;;;;;;;;30.50;100.00;97872.78;4845303;29;19955;-73
2022/07/26 08:20:22;;;;;;;;;;;;;;;30.46;100.00;97884.66;4844854;29;19965;-73
2022/07/26 08:22:49;;;;;;;;;;;;;;;30.53;100.00;97883.25;4846162;29;19975;-74
2022/07/26 08:25:17;;;;;;;;;;;;;;;30.54;100.00;97876.19;4846075;29;19950;-73
2022/07/26 08:27:44;;;;;;;;;;;;;;;30.68;100.00;97880.72;4845424;29;19954;-73
2022/07/26 08:30:21;;;;;;;;;;;;;;;30.67;100.00;97878.34;4842834;29;19955;-73
2022/07/26 08:32:48;;;;;;;;;;;;;;;30.56;100.00;97882.19;4845683;29;19949;-73
2022/07/26 08:35:15;;;;;;;;;;;;;;;30.67;100.00;97889.91;4845487;29;20352;-73
2022/07/26 08:37:44;;;;;;;;;;;;;;;30.49;100.00;97894.34;4845727;29;19959;-73
2022/07/26 08:40:11;;;;;;;;;;;;;;;30.48;100.00;97887.00;4845349;29;19964;-73
2022/07/26 08:42:39;;;;;;;;;;;;;;;30.52;100.00;97887.47;4844869;29;19963;-73
2022/07/26 08:45:06;;;;;;;;;;;;;;;30.42;100.00;97903.59;4828067;29;19969;-73
2022/07/26 08:47:33;;;;;;;;;;;;;;;30.52;100.00;97888.25;4844246;29;19952;-73
2022/07/26 08:50:00;;;;;;;;;;;;;;;30.53;100.00;97891.91;4844744;29;19956;-73
2022/07/26 08:52:28;;;;;;;;;;;;;;;30.55;100.00;97892.16;4844039;29;20720;-73
2022/07/26 08:54:55;;;;;;;;;;;;;;;30.35;100.00;97887.66;4844439;29;20242;-73
2022/07/26 08:57:22;;;;;;;;;;;;;;;30.41;100.00;97888.38;4845264;29;19950;-73
2022/07/26 09:00:08;;;;;;;;;;;;;;;30.60;100.00;97899.97;4829115;29;19969;-73
2022/07/26 09:02:38;;;;;;;;;;;;;;;30.76;100.00;97892.41;4843501;29;19962;-73
2022/07/26 09:05:05;;;;;;;;;;;;;;;30.76;100.00;97889.53;4844980;29;19978;-73
2022/07/26 09:07:33;;;;;;;;;;;;;;;30.61;100.00;97883.44;4843750;29;19952;-73
2022/07/26 09:10:04;;;;;;;;;;;;;;;30.60;100.00;97885.53;4845243;29;19954;-73
2022/07/26 09:12:32;;;;;;;;;;;;;;;30.69;100.00;97890.91;4848960;29;19952;-73
2022/07/26 09:15:00;;;;;;;;;;;;;;;30.68;100.00;97888.59;4845118;29;19957;-73
2022/07/26 09:17:42;;;;;;;;;;;;;;;30.74;100.00;97895.84;4844602;29;20369;-73
2022/07/26 09:20:11;;;;;;;;;;;;;;;30.86;100.00;97891.47;4844097;29;19972;-73
2022/07/26 09:22:55;;;;;;;;;;;;;;;31.10;100.00;97894.34;4844341;29;19958;-73
2022/07/26 09:25:24;;;;;;;;;;;;;;;31.23;100.00;97884.94;4843833;29;19948;-73
2022/07/26 09:27:51;;;;;;;;;;;;;;;30.77;100.00;97882.41;4844823;29;19980;-73
2022/07/26 09:30:19;;;;;;;;;;;;;;;30.87;100.00;97883.59;4844620;29;19950;-73
2022/07/26 09:32:57;;;;;;;;;;;;;;;30.98;100.00;97880.59;4844354;29;19961;-73
2022/07/26 09:35:25;;;;;;;;;;;;;;;31.03;100.00;97882.63;4844398;29;20028;-73
2022/07/26 09:38:13;;;;;;;;;;;;;;;31.11;100.00;97887.22;4844155;29;19952;-73
2022/07/26 09:40:41;;;;;;;;;;;;;;;31.09;100.00;97883.31;4844281;29;19962;-73
2022/07/26 09:43:08;;;;;;;;;;;;;;;31.15;100.00;97881.13;4844231;29;20219;-73
2022/07/26 09:45:35;;;;;;;;;;;;;;;31.20;100.00;97881.03;4843765;29;19973;-73
2022/07/26 09:48:03;;;;;;;;;;;;;;;31.13;100.00;97884.56;4843977;29;19961;-73
2022/07/26 09:50:31;;;;;;;;;;;;;;;31.27;100.00;97879.63;4843679;29;19953;-73
2022/07/26 09:53:05;;;;;;;;;;;;;;;31.22;100.00;97886.28;4843762;29;20023;-73
2022/07/26 09:55:53;;;;;;;;;;;;;;;31.13;100.00;97880.88;4843802;29;19959;-73
2022/07/26 09:58:21;;;;;;;;;;;;;;;31.26;100.00;97878.06;4844521;29;19946;-73
2022/07/26 10:00:48;;;;;;;;;;;;;;;31.24;100.00;97891.50;4844315;29;19999;-73
2022/07/26 10:03:16;;;;;;;;;;;;;;;31.34;100.00;97887.66;4843853;29;20377;-73
2022/07/26 10:05:43;;;;;;;;;;;;;;;31.36;100.00;97884.22;4843577;29;19953;-73
2022/07/26 10:08:11;;;;;;;;;;;;;;;31.58;100.00;97893.34;4843870;29;20249;-73
2022/07/26 10:10:44;;;;;;;;;;;;;;;31.53;100.00;97891.31;4843576;29;19949;-73
2022/07/26 10:13:12;;;;;;;;;;;;;;;31.51;100.00;97888.22;4843885;29;19952;-73
2022/07/26 10:15:41;;;;;;;;;;;;;;;31.34;100.00;97893.44;4843612;29;20257;-73
2022/07/26 10:18:10;;;;;;;;;;;;;;;31.07;100.00;97895.44;4843968;29;20346;-73
2022/07/26 10:20:44;;;;;;;;;;;;;;;31.27;100.00;97885.41;4843498;29;19973;-73
2022/07/26 10:23:30;;;;;;;;;;;;;;;31.26;100.00;97883.84;4843998;29;19952;-73
2022/07/26 10:25:58;;;;;;;;;;;;;;;31.10;100.00;97873.34;4843699;29;19965;-73
2022/07/26 10:28:26;;;;;;;;;;;;;;;31.18;100.00;97886.59;4843695;29;19948;-73
2022/07/26 10:31:14;;;;;;;;;;;;;;;31.03;100.00;97880.50;4843840;29;19953;-73
2022/07/26 10:33:43;;;;;;;;;;;;;;;31.06;100.00;97872.84;4831657;29;19949;-73
2022/07/26 10:36:21;;;;;;;;;;;;;;;31.12;100.00;97879.34;4843763;29;20367;-73
2022/07/26 10:39:00;;;;;;;;;;;;;;;30.86;100.00;97873.38;4843251;29;19952;-73
2022/07/26 10:41:31;;;;;;;;;;;;;;;30.96;100.00;97874.59;4843890;29;19971;-73
2022/07/26 10:44:18;;;;;;;;;;;;;;;31.07;100.00;97880.19;4844025;29;20274;-73
2022/07/26 10:46:57;;;;;;;;;;;;;;;31.10;99.91;97870.44;4831453;29;19954;-73
2022/07/26 10:49:28;;;;;;;;;;;;;;;31.19;98.54;97859.25;4840556;29;19965;-73
2022/07/26 10:52:05;;;;;;;;;;;;;;;31.10;100.00;97864.66;4834342;29;19960;-73
2022/07/26 10:54:51;;;;;;;;;;;;;;;31.12;100.00;97853.34;4831108;29;19947;-73
2022/07/26 10:57:18;;;;;;;;;;;;;;;31.13;100.00;97857.78;4834317;29;19956;-73
2022/07/26 10:59:45;;;;;;;;;;;;;;;31.17;100.00;97861.13;4834273;29;19964;-73
2022/07/26 11:02:22;;;;;;;;;;;;;;;31.09;100.00;97854.44;4843342;29;20291;-73
2022/07/26 11:04:57;;;;;;;;;;;;;;;31.34;99.25;97847.22;4846652;29;19946;-73
2022/07/26 11:07:24;;;;;;;;;;;;;;;31.18;100.00;97854.81;4844237;29;19958;-73
2022/07/26 11:09:54;;;;;;;;;;;;;;;31.36;99.04;97844.53;4845299;29;19975;-73
2022/07/26 11:12:21;;;;;;;;;;;;;;;31.50;100.00;97848.28;4846412;29;19961;-73
2022/07/26 11:14:49;;;;;;;;;;;;;;;31.47;93.28;97860.97;4846137;29;19953;-73
2022/07/26 11:17:26;;;;;;;;;;;;;;;31.46;94.38;97857.28;4845690;29;19947;-73
2022/07/26 11:19:54;;;;;;;;;;;;;;;31.42;96.43;97847.34;4851225;29;19971;-74
2022/07/26 11:22:30;;;;;;;;;;;;;;;31.51;96.54;97846.97;4846460;29;20365;-74
2022/07/26 11:24:58;;;;;;;;;;;;;;;31.46;93.38;97844.94;4843987;29;19956;-73
2022/07/26 11:27:25;;;;;;;;;;;;;;;31.44;98.75;97833.16;4846487;29;19964;-73
2022/07/26 11:29:52;;;;;;;;;;;;;;;31.31;98.08;97836.75;4846017;29;19956;-73
2022/07/26 11:32:21;;;;;;;;;;;;;;;31.48;95.29;97830.72;4845186;29;19960;-73
2022/07/26 11:35:01;;;;;;;;;;;;;;;31.35;93.08;97834.31;4842349;29;19953;-73
2022/07/26 11:37:29;;;;;;;;;;;;;;;31.44;92.79;97830.28;4844096;29;19946;-73
2022/07/26 11:39:56;;;;;;;;;;;;;;;31.43;94.79;97832.34;4843063;29;19983;-73
2022/07/26 11:42:24;;;;;;;;;;;;;;;31.48;93.41;97831.50;4831934;29;19956;-73
2022/07/26 11:44:52;;;;;;;;;;;;;;;31.62;93.65;97830.19;4845231;29;19970;-73
2022/07/26 11:47:21;;;;;;;;;;;;;;;31.66;87.78;97824.09;4840187;29;19952;-73
2022/07/26 11:49:49;;;;;;;;;;;;;;;31.54;92.71;97816.97;4847672;29;19963;-73
2022/07/26 11:52:16;;;;;;;;;;;;;;;31.65;90.52;97823.31;4844443;29;19948;-74
2022/07/26 11:54:43;;;;;;;;;;;;;;;31.64;89.62;97826.78;4845624;29;19956;-73
2022/07/26 11:57:11;;;;;;;;;;;;;;;31.53;90.39;97821.16;4844853;29;19950;-73
2022/07/26 11:59:39;;;;;;;;;;;;;;;31.47;91.08;97814.72;4845476;29;19964;-73
2022/07/26 12:02:07;;;;;;;;;;;;;;;31.57;90.75;97813.72;4845422;29;19953;-74
2022/07/26 12:04:39;;;;;;;;;;;;;;;31.61;89.59;97811.31;4840243;29;20589;-74
2022/07/26 12:07:13;;;;;;;;;;;;;;;31.72;95.41;97801.63;4841020;29;19945;-74
2022/07/26 12:09:41;;;;;;;;;;;;;;;31.68;89.45;97801.97;4845653;29;19948;-74
2022/07/26 12:12:09;;;;;;;;;;;;;;;31.84;83.93;97802.97;4844457;29;20473;-74
2022/07/26 12:14:39;;;;;;;;;;;;;;;31.86;85.11;97803.22;4844751;29;19957;-73
2022/07/26 12:17:10;;;;;;;;;;;;;;;31.87;84.92;97798.19;4845295;29;20337;-74
2022/07/26 12:19:38;;;;;;;;;;;;;;;31.94;84.29;97791.78;4840656;29;19960;-74
2022/07/26 12:22:10;;;;;;;;;;;;;;;32.01;83.53;97789.00;4846104;29;19995;-74
2022/07/26 12:24:41;;;;;;;;;;;;;;;32.06;89.02;97788.13;4845231;29;19959;-73
2022/07/26 12:27:16;;;;;;;;;;;;;;;32.05;84.49;97786.59;4846128;29;19986;-73
2022/07/26 12:29:44;;;;;;;;;;;;;;;32.04;83.74;97782.13;4844843;29;19963;-73
2022/07/26 12:32:12;;;;;;;;;;;;;;;32.04;82.03;97787.91;4845349;29;19950;-74
